createdAt,value
2023-01-29T00:01:18.784Z,3.60
2023-01-29T00:05:29.986Z,3.93
2023-01-29T00:09:32.755Z,3.30
2023-01-29T00:13:35.573Z,3.57
2023-01-29T00:17:38.248Z,3.93
2023-01-29T00:21:42.329Z,3.93
2023-01-29T00:25:45.441Z,3.80
2023-01-29T00:30:08.426Z,4.10
2023-01-29T00:34:11.175Z,3.73
2023-01-29T00:38:15.965Z,3.27
2023-01-29T00:42:36.131Z,3.70
2023-01-29T00:46:38.942Z,3.30
2023-01-29T00:50:41.654Z,3.20
2023-01-29T00:54:45.967Z,3.40
2023-01-29T00:58:48.927Z,3.50
2023-01-29T01:03:07.194Z,3.00
2023-01-29T01:11:14.066Z,3.77
2023-01-29T01:15:17.503Z,3.37
2023-01-29T01:19:20.233Z,3.50
2023-01-29T01:23:22.897Z,3.30
2023-01-29T01:27:27.437Z,3.70
2023-01-29T01:31:30.219Z,3.83
2023-01-29T01:35:33.176Z,3.80
2023-01-29T01:39:36.152Z,4.03
2023-01-29T01:43:55.601Z,3.67
2023-01-29T01:48:01.318Z,3.50
2023-01-29T01:52:04.672Z,3.90
2023-01-29T01:56:10.281Z,3.80
2023-01-29T02:00:18.220Z,3.37
2023-01-29T02:04:41.138Z,3.53
2023-01-29T02:09:05.553Z,3.50
2023-01-29T02:13:08.949Z,3.73
2023-01-29T02:17:14.770Z,3.80
2023-01-29T02:21:29.368Z,3.70
2023-01-29T02:26:09.305Z,3.60
2023-01-29T02:30:18.443Z,3.50
2023-01-29T02:34:30.882Z,3.60
2023-01-29T02:38:38.939Z,3.80
2023-01-29T02:42:47.316Z,3.63
2023-01-29T02:46:58.261Z,3.67
2023-01-29T02:51:05.581Z,3.63
2023-01-29T02:55:12.120Z,3.70
2023-01-29T02:59:17.986Z,4.50
2023-01-29T03:03:26.875Z,4.50
2023-01-29T03:07:44.893Z,3.80
2023-01-29T03:11:51.158Z,4.50
2023-01-29T03:16:01.497Z,4.57
2023-01-29T03:20:09.425Z,4.30
2023-01-29T03:24:31.436Z,4.00
2023-01-29T03:28:52.340Z,4.20
2023-01-29T03:32:55.593Z,4.73
2023-01-29T03:37:03.040Z,4.70
2023-01-29T03:41:10.043Z,4.20
2023-01-29T03:45:18.924Z,4.90
2023-01-29T03:49:26.873Z,4.80
2023-01-29T03:53:35.424Z,3.93
2023-01-29T03:57:41.168Z,4.40
2023-01-29T04:01:47.532Z,4.67
2023-01-29T04:05:53.190Z,4.43
2023-01-29T04:10:00.054Z,4.30
2023-01-29T04:14:03.422Z,4.20
2023-01-29T04:18:06.513Z,4.70
2023-01-29T04:22:14.937Z,3.80
2023-01-29T04:26:29.358Z,4.13
2023-01-29T04:30:40.586Z,4.80
2023-01-29T04:34:56.722Z,4.70
2023-01-29T04:39:07.808Z,4.50
2023-01-29T04:43:19.046Z,4.00
2023-01-29T04:47:27.109Z,3.97
2023-01-29T04:51:36.381Z,3.90
2023-01-29T04:55:42.116Z,4.10
2023-01-29T04:59:48.637Z,3.87
2023-01-29T05:03:51.941Z,3.73
2023-01-29T05:07:55.495Z,3.23
2023-01-29T05:11:58.475Z,4.03
2023-01-29T05:16:05.870Z,4.13
2023-01-29T05:20:10.331Z,4.13
2023-01-29T05:24:14.741Z,4.20
2023-01-29T05:28:17.534Z,4.27
2023-01-29T05:32:21.864Z,4.40
2023-01-29T05:36:25.551Z,4.37
2023-01-29T05:40:28.275Z,3.87
2023-01-29T05:44:30.928Z,4.23
2023-01-29T05:48:35.298Z,3.93
2023-01-29T05:52:37.993Z,3.70
2023-01-29T05:56:40.740Z,3.70
2023-01-29T06:00:43.600Z,3.90
2023-01-29T06:04:47.935Z,3.50
2023-01-29T06:08:50.681Z,3.87
2023-01-29T06:12:53.449Z,4.07
2023-01-29T06:16:56.178Z,3.70
2023-01-29T06:21:03.431Z,3.90
2023-01-29T06:25:07.348Z,4.07
2023-01-29T06:29:10.037Z,4.10
2023-01-29T06:33:12.759Z,4.20
2023-01-29T06:37:17.206Z,4.30
2023-01-29T06:41:22.749Z,4.27
2023-01-29T06:45:25.463Z,4.40
2023-01-29T06:49:28.442Z,4.70
2023-01-29T06:53:32.681Z,4.43
2023-01-29T06:57:35.363Z,4.63
2023-01-29T07:01:42.388Z,4.70
2023-01-29T07:05:51.968Z,4.53
2023-01-29T07:09:56.025Z,5.17
2023-01-29T07:13:58.845Z,4.93
2023-01-29T07:18:03.952Z,4.77
2023-01-29T07:22:06.676Z,5.47
2023-01-29T07:26:11.778Z,5.10
2023-01-29T07:30:15.679Z,5.30
2023-01-29T07:34:18.928Z,6.40
2023-01-29T07:38:21.760Z,5.10
2023-01-29T07:42:25.941Z,6.13
2023-01-29T07:46:28.899Z,5.60
2023-01-29T07:50:32.431Z,7.17
2023-01-29T07:54:35.455Z,6.27
2023-01-29T07:58:39.796Z,5.60
2023-01-29T08:02:42.759Z,5.77
2023-01-29T08:06:45.461Z,6.93
2023-01-29T08:10:48.178Z,5.63
2023-01-29T08:14:52.483Z,6.47
2023-01-29T08:18:55.671Z,8.13
2023-01-29T08:23:02.590Z,6.13
2023-01-29T08:27:05.286Z,6.40
2023-01-29T08:31:15.557Z,6.10
2023-01-29T08:35:18.617Z,9.03
2023-01-29T08:39:21.505Z,6.70
2023-01-29T08:43:24.256Z,5.30
2023-01-29T08:47:29.569Z,6.70
2023-01-29T08:51:32.347Z,5.73
2023-01-29T08:55:36.907Z,5.60
2023-01-29T08:59:39.714Z,5.97
2023-01-29T09:03:44.630Z,5.23
2023-01-29T09:07:47.339Z,5.13
2023-01-29T09:11:50.087Z,4.77
2023-01-29T09:15:52.834Z,7.23
2023-01-29T09:19:56.897Z,5.60
2023-01-29T09:23:59.604Z,5.97
2023-01-29T09:28:02.662Z,5.40
2023-01-29T09:32:06.890Z,7.13
2023-01-29T09:36:11.333Z,6.57
2023-01-29T09:40:25.915Z,7.40
2023-01-29T09:44:39.952Z,7.10
2023-01-29T09:48:43.425Z,9.00
2023-01-29T09:52:50.662Z,5.80
2023-01-29T09:56:55.800Z,6.60
2023-01-29T10:01:04.275Z,6.27
2023-01-29T10:05:22.200Z,6.77
2023-01-29T10:09:47.891Z,6.70
2023-01-29T10:13:55.745Z,6.37
2023-01-29T10:18:07.353Z,7.13
2023-01-29T10:23:03.901Z,7.27
2023-01-29T10:27:13.993Z,6.63
2023-01-29T10:31:19.750Z,8.43
2023-01-29T10:35:25.045Z,7.50
2023-01-29T10:39:28.145Z,6.60
2023-01-29T10:43:35.987Z,9.10
2023-01-29T10:48:11.678Z,7.37
2023-01-29T10:52:24.407Z,7.13
2023-01-29T10:56:41.017Z,7.90
2023-01-29T11:00:45.324Z,7.43
2023-01-29T11:04:48.531Z,7.67
2023-01-29T11:08:55.245Z,11.70
2023-01-29T11:12:58.503Z,7.40
2023-01-29T11:17:03.891Z,7.53
2023-01-29T11:21:07.264Z,7.97
2023-01-29T11:25:16.497Z,7.80
2023-01-29T11:29:32.077Z,8.60
2023-01-29T11:33:36.655Z,7.47
2023-01-29T11:37:41.170Z,7.83
2023-01-29T11:41:44.819Z,8.20
2023-01-29T11:45:47.931Z,7.03
2023-01-29T11:49:53.595Z,8.27
2023-01-29T11:53:58.317Z,8.27
2023-01-29T11:58:04.491Z,8.17
2023-01-29T12:02:18.793Z,8.40
2023-01-29T12:06:24.749Z,8.27
2023-01-29T12:10:32.931Z,7.70
2023-01-29T12:14:36.899Z,8.50
2023-01-29T12:18:41.304Z,7.97
2023-01-29T12:22:48.877Z,8.23
2023-01-29T12:26:54.520Z,8.30
2023-01-29T12:31:09.914Z,8.20
2023-01-29T12:35:16.248Z,7.90
2023-01-29T12:39:21.488Z,8.00
2023-01-29T12:43:27.528Z,7.00
2023-01-29T12:47:32.719Z,7.10
2023-01-29T12:51:41.191Z,6.50
2023-01-29T12:55:47.734Z,6.33
2023-01-29T12:59:54.994Z,6.07
2023-01-29T13:04:01.883Z,5.47
2023-01-29T13:08:08.669Z,6.40
2023-01-29T13:12:15.969Z,6.50
2023-01-29T13:16:22.901Z,6.07
2023-01-29T13:20:30.098Z,5.73
2023-01-29T13:24:36.665Z,6.00
2023-01-29T13:28:41.122Z,6.53
2023-01-29T13:32:43.892Z,6.00
2023-01-29T13:36:48.231Z,6.33
2023-01-29T13:40:51.556Z,5.77
2023-01-29T13:44:57.383Z,6.00
2023-01-29T13:49:04.793Z,5.73
2023-01-29T13:53:09.083Z,7.30
2023-01-29T13:57:37.524Z,6.77
2023-01-29T14:02:03.913Z,6.03
2023-01-29T14:06:06.835Z,5.93
2023-01-29T14:10:17.859Z,5.67
2023-01-29T14:15:02.351Z,6.20
2023-01-29T14:19:06.551Z,5.90
2023-01-29T14:23:09.734Z,6.50
2023-01-29T14:27:20.953Z,6.23
2023-01-29T14:31:40.817Z,6.00
2023-01-29T14:35:50.547Z,5.47
2023-01-29T14:39:54.586Z,6.27
2023-01-29T14:44:34.975Z,6.37
2023-01-29T14:48:40.224Z,5.70
2023-01-29T14:52:44.077Z,6.70
2023-01-29T14:56:51.503Z,6.33
2023-01-29T15:00:56.392Z,6.73
2023-01-29T15:05:01.729Z,7.17
2023-01-29T15:09:11.182Z,6.93
2023-01-29T15:13:18.785Z,6.23
2023-01-29T15:17:28.614Z,6.90
2023-01-29T15:21:33.062Z,6.33
2023-01-29T15:25:37.358Z,9.10
2023-01-29T15:29:40.681Z,7.70
2023-01-29T15:33:45.940Z,12.87
2023-01-29T15:38:01.501Z,6.43
2023-01-29T15:42:14.284Z,7.10
2023-01-29T15:46:29.173Z,6.57
2023-01-29T15:50:32.286Z,6.57
2023-01-29T15:54:37.953Z,6.87
2023-01-29T15:58:41.240Z,6.03
2023-01-29T16:02:44.070Z,7.00
2023-01-29T16:06:47.725Z,6.47
2023-01-29T16:10:55.099Z,6.67
2023-01-29T16:14:58.190Z,7.87
2023-01-29T16:19:01.498Z,8.63
2023-01-29T16:23:05.087Z,9.00
2023-01-29T16:27:12.349Z,10.37
2023-01-29T16:31:22.715Z,12.37
2023-01-29T16:35:25.619Z,14.87
2023-01-29T16:39:32.615Z,16.07
2023-01-29T16:43:57.680Z,13.53
2023-01-29T16:48:06.409Z,13.30
2023-01-29T16:52:19.100Z,12.33
2023-01-29T16:56:23.483Z,9.33
2023-01-29T17:00:29.185Z,9.97
2023-01-29T17:04:32.242Z,8.97
2023-01-29T17:08:35.727Z,9.07
2023-01-29T17:12:39.088Z,9.70
2023-01-29T17:16:51.821Z,9.60
2023-01-29T17:20:54.577Z,9.40
2023-01-29T17:24:57.287Z,9.40
2023-01-29T17:29:00.466Z,10.47
2023-01-29T17:33:11.445Z,10.10
2023-01-29T17:37:15.504Z,11.57
2023-01-29T17:41:24.696Z,11.17
2023-01-29T17:45:27.870Z,10.93
2023-01-29T17:49:33.543Z,11.60
2023-01-29T17:53:45.626Z,15.33
2023-01-29T17:57:48.919Z,14.33
2023-01-29T18:01:53.135Z,14.27
2023-01-29T18:05:57.312Z,14.00
2023-01-29T18:10:00.399Z,16.37
2023-01-29T18:14:04.542Z,16.83
2023-01-29T18:18:20.097Z,17.27
2023-01-29T18:22:24.398Z,17.77
2023-01-29T18:26:27.184Z,16.23
2023-01-29T18:30:30.410Z,14.70
2023-01-29T18:34:33.170Z,13.90
2023-01-29T18:38:37.525Z,14.93
2023-01-29T18:42:40.527Z,15.30
2023-01-29T18:46:43.354Z,15.03
2023-01-29T18:50:46.132Z,18.47
2023-01-29T18:54:50.798Z,18.17
2023-01-29T18:58:56.549Z,20.80
2023-01-29T19:02:59.369Z,22.80
2023-01-29T19:07:04.783Z,21.87
2023-01-29T19:11:09.098Z,18.17
2023-01-29T19:15:12.663Z,19.43
2023-01-29T19:19:15.440Z,20.50
2023-01-29T19:23:18.327Z,23.77
2023-01-29T19:27:22.525Z,27.03
2023-01-29T19:31:25.906Z,31.17
2023-01-29T19:35:28.828Z,28.90
2023-01-29T19:39:33.767Z,31.27
2023-01-29T19:43:40.714Z,24.67
2023-01-29T19:47:44.230Z,21.67
2023-01-29T19:51:47.092Z,21.77
2023-01-29T19:55:58.175Z,25.70
2023-01-29T20:00:03.128Z,19.00
2023-01-29T20:04:06.101Z,16.67
2023-01-29T20:08:09.069Z,16.13
2023-01-29T20:12:13.031Z,15.27
2023-01-29T20:16:18.010Z,15.07
2023-01-29T20:20:21.035Z,16.80
2023-01-29T20:24:26.375Z,17.93
2023-01-29T20:28:29.403Z,17.93
2023-01-29T20:32:33.871Z,17.63
2023-01-29T20:36:36.596Z,18.27
2023-01-29T20:40:39.338Z,17.97
2023-01-29T20:44:42.047Z,17.40
2023-01-29T20:48:46.219Z,15.97
2023-01-29T20:52:49.038Z,17.10
2023-01-29T20:56:52.331Z,18.00
2023-01-29T21:00:55.768Z,20.42
2023-01-29T21:05:00.464Z,18.87
2023-01-29T21:09:03.649Z,18.37
2023-01-29T21:13:06.433Z,18.67
2023-01-29T21:17:09.578Z,19.13
2023-01-29T21:21:13.871Z,17.30
2023-01-29T21:25:19.053Z,19.37
2023-01-29T21:29:21.834Z,19.03
2023-01-29T21:33:24.570Z,19.53
2023-01-29T21:37:29.940Z,19.17
2023-01-29T21:41:46.543Z,19.57
2023-01-29T21:45:55.906Z,23.50
2023-01-29T21:49:58.850Z,22.67
2023-01-29T21:54:04.245Z,24.83
2023-01-29T21:58:07.114Z,25.40
2023-01-29T22:02:13.405Z,22.27
2023-01-29T22:06:16.343Z,22.17
2023-01-29T22:10:21.080Z,21.03
2023-01-29T22:14:24.262Z,19.90
2023-01-29T22:18:27.482Z,19.73
2023-01-29T22:22:30.161Z,17.83
2023-01-29T22:26:34.421Z,16.93
2023-01-29T22:30:37.293Z,15.30
2023-01-29T22:34:40.052Z,14.70
2023-01-29T22:38:43.551Z,13.90
2023-01-29T22:42:47.621Z,14.83
2023-01-29T22:46:51.082Z,13.87
2023-01-29T22:51:09.848Z,14.00
2023-01-29T22:55:14.082Z,13.97
2023-01-29T22:59:22.789Z,14.27
2023-01-29T23:03:25.764Z,13.73
2023-01-29T23:07:29.329Z,12.93
2023-01-29T23:11:32.704Z,14.07
2023-01-29T23:15:37.593Z,13.87
2023-01-29T23:19:40.371Z,13.13
2023-01-29T23:23:45.035Z,12.97
2023-01-29T23:27:47.997Z,13.10
2023-01-29T23:31:52.172Z,13.63
2023-01-29T23:35:54.927Z,13.50
2023-01-29T23:39:57.722Z,14.20
2023-01-29T23:44:00.627Z,14.57
2023-01-29T23:48:05.189Z,14.10
2023-01-29T23:52:07.905Z,13.27
2023-01-29T23:56:11.553Z,13.90
